sensor_id;sensor_type;location;lat;lon;timestamp;P1;durP1;ratioP1;P2;durP2;ratioP2
19089;SDS011;9677;50.656;13.064;2022-08-30T00:00:23;9.73;;;8.83;;
19089;SDS011;9677;50.656;13.064;2022-08-30T00:03:09;9.83;;;8.93;;
19089;SDS011;9677;50.656;13.064;2022-08-30T00:05:41;10.23;;;9.23;;
19089;SDS011;9677;50.656;13.064;2022-08-30T00:08:12;10.13;;;9.20;;
19089;SDS011;9677;50.656;13.064;2022-08-30T00:10:41;10.27;;;9.30;;
19089;SDS011;9677;50.656;13.064;2022-08-30T00:13:10;9.93;;;8.93;;
19089;SDS011;9677;50.656;13.064;2022-08-30T00:15:41;10.20;;;9.20;;
19089;SDS011;9677;50.656;13.064;2022-08-30T00:18:10;9.90;;;9.00;;
19089;SDS011;9677;50.656;13.064;2022-08-30T00:20:39;10.03;;;9.03;;
19089;SDS011;9677;50.656;13.064;2022-08-30T00:23:07;9.90;;;9.00;;
19089;SDS011;9677;50.656;13.064;2022-08-30T00:25:37;10.50;;;9.50;;
19089;SDS011;9677;50.656;13.064;2022-08-30T00:28:06;9.93;;;8.93;;
19089;SDS011;9677;50.656;13.064;2022-08-30T00:30:35;9.87;;;8.97;;
19089;SDS011;9677;50.656;13.064;2022-08-30T00:33:04;10.60;;;9.50;;
19089;SDS011;9677;50.656;13.064;2022-08-30T00:35:32;10.00;;;9.00;;
19089;SDS011;9677;50.656;13.064;2022-08-30T00:38:01;10.20;;;9.20;;
19089;SDS011;9677;50.656;13.064;2022-08-30T00:40:30;10.17;;;9.17;;
19089;SDS011;9677;50.656;13.064;2022-08-30T00:43:00;10.10;;;9.10;;
19089;SDS011;9677;50.656;13.064;2022-08-30T00:45:32;9.70;;;8.80;;
19089;SDS011;9677;50.656;13.064;2022-08-30T00:48:03;10.47;;;9.37;;
19089;SDS011;9677;50.656;13.064;2022-08-30T00:50:34;10.10;;;8.80;;
19089;SDS011;9677;50.656;13.064;2022-08-30T00:53:09;10.03;;;8.80;;
19089;SDS011;9677;50.656;13.064;2022-08-30T00:55:42;10.40;;;8.93;;
19089;SDS011;9677;50.656;13.064;2022-08-30T00:58:13;10.20;;;9.20;;
19089;SDS011;9677;50.656;13.064;2022-08-30T01:00:48;10.20;;;9.20;;
19089;SDS011;9677;50.656;13.064;2022-08-30T01:03:18;10.80;;;9.60;;
19089;SDS011;9677;50.656;13.064;2022-08-30T01:05:48;10.50;;;9.23;;
19089;SDS011;9677;50.656;13.064;2022-08-30T01:08:18;10.20;;;9.20;;
19089;SDS011;9677;50.656;13.064;2022-08-30T01:10:47;10.13;;;9.13;;
19089;SDS011;9677;50.656;13.064;2022-08-30T01:13:19;10.03;;;9.03;;
19089;SDS011;9677;50.656;13.064;2022-08-30T01:15:48;9.80;;;8.90;;
19089;SDS011;9677;50.656;13.064;2022-08-30T01:18:19;10.00;;;9.00;;
19089;SDS011;9677;50.656;13.064;2022-08-30T01:20:49;9.97;;;9.07;;
19089;SDS011;9677;50.656;13.064;2022-08-30T01:23:30;10.10;;;9.10;;
19089;SDS011;9677;50.656;13.064;2022-08-30T01:26:00;10.10;;;9.10;;
19089;SDS011;9677;50.656;13.064;2022-08-30T01:28:32;9.60;;;8.70;;
19089;SDS011;9677;50.656;13.064;2022-08-30T01:31:01;10.23;;;9.23;;
19089;SDS011;9677;50.656;13.064;2022-08-30T01:33:30;9.73;;;8.83;;
19089;SDS011;9677;50.656;13.064;2022-08-30T01:36:00;10.37;;;9.37;;
19089;SDS011;9677;50.656;13.064;2022-08-30T01:38:34;10.33;;;9.33;;
19089;SDS011;9677;50.656;13.064;2022-08-30T01:41:07;10.47;;;9.47;;
19089;SDS011;9677;50.656;13.064;2022-08-30T01:43:39;10.57;;;9.47;;
19089;SDS011;9677;50.656;13.064;2022-08-30T01:46:08;10.20;;;9.10;;
19089;SDS011;9677;50.656;13.064;2022-08-30T01:48:37;10.30;;;9.30;;
19089;SDS011;9677;50.656;13.064;2022-08-30T01:51:15;9.87;;;8.97;;
19089;SDS011;9677;50.656;13.064;2022-08-30T01:53:45;9.77;;;8.87;;
19089;SDS011;9677;50.656;13.064;2022-08-30T01:56:14;10.00;;;9.00;;
19089;SDS011;9677;50.656;13.064;2022-08-30T01:58:42;10.63;;;9.57;;
19089;SDS011;9677;50.656;13.064;2022-08-30T02:01:13;10.03;;;9.13;;
19089;SDS011;9677;50.656;13.064;2022-08-30T02:03:43;10.60;;;9.60;;
19089;SDS011;9677;50.656;13.064;2022-08-30T02:06:13;9.90;;;9.00;;
19089;SDS011;9677;50.656;13.064;2022-08-30T02:08:46;10.10;;;9.10;;
19089;SDS011;9677;50.656;13.064;2022-08-30T02:11:15;10.00;;;9.10;;
19089;SDS011;9677;50.656;13.064;2022-08-30T02:13:45;10.40;;;9.40;;
19089;SDS011;9677;50.656;13.064;2022-08-30T02:16:14;10.03;;;9.13;;
19089;SDS011;9677;50.656;13.064;2022-08-30T02:18:48;10.10;;;9.20;;
19089;SDS011;9677;50.656;13.064;2022-08-30T02:21:18;9.70;;;8.80;;
19089;SDS011;9677;50.656;13.064;2022-08-30T02:23:48;9.80;;;8.90;;
19089;SDS011;9677;50.656;13.064;2022-08-30T02:26:17;10.30;;;9.30;;
19089;SDS011;9677;50.656;13.064;2022-08-30T02:28:46;10.20;;;9.20;;
19089;SDS011;9677;50.656;13.064;2022-08-30T02:31:16;10.30;;;9.30;;
19089;SDS011;9677;50.656;13.064;2022-08-30T02:33:47;10.43;;;9.43;;
19089;SDS011;9677;50.656;13.064;2022-08-30T02:36:17;10.20;;;9.20;;
19089;SDS011;9677;50.656;13.064;2022-08-30T02:38:49;10.20;;;9.23;;
19089;SDS011;9677;50.656;13.064;2022-08-30T02:41:19;10.03;;;9.13;;
19089;SDS011;9677;50.656;13.064;2022-08-30T02:43:49;10.10;;;9.20;;
19089;SDS011;9677;50.656;13.064;2022-08-30T02:46:23;10.03;;;9.13;;
19089;SDS011;9677;50.656;13.064;2022-08-30T02:48:58;10.17;;;9.17;;
19089;SDS011;9677;50.656;13.064;2022-08-30T02:51:47;10.20;;;9.13;;
19089;SDS011;9677;50.656;13.064;2022-08-30T02:54:17;10.07;;;9.17;;
19089;SDS011;9677;50.656;13.064;2022-08-30T02:56:46;10.30;;;9.30;;
19089;SDS011;9677;50.656;13.064;2022-08-30T02:59:15;10.30;;;9.30;;
19089;SDS011;9677;50.656;13.064;2022-08-30T03:01:45;10.50;;;9.50;;
19089;SDS011;9677;50.656;13.064;2022-08-30T03:04:14;10.50;;;9.50;;
19089;SDS011;9677;50.656;13.064;2022-08-30T03:06:43;10.10;;;9.20;;
19089;SDS011;9677;50.656;13.064;2022-08-30T03:09:11;10.30;;;9.30;;
19089;SDS011;9677;50.656;13.064;2022-08-30T03:11:41;10.53;;;9.53;;
19089;SDS011;9677;50.656;13.064;2022-08-30T03:14:10;10.07;;;9.10;;
19089;SDS011;9677;50.656;13.064;2022-08-30T03:16:38;9.90;;;9.00;;
19089;SDS011;9677;50.656;13.064;2022-08-30T03:19:06;10.03;;;9.07;;
19089;SDS011;9677;50.656;13.064;2022-08-30T03:21:35;10.30;;;9.30;;
19089;SDS011;9677;50.656;13.064;2022-08-30T03:24:04;10.37;;;9.37;;
19089;SDS011;9677;50.656;13.064;2022-08-30T03:26:33;10.30;;;9.30;;
19089;SDS011;9677;50.656;13.064;2022-08-30T03:29:03;10.30;;;9.30;;
19089;SDS011;9677;50.656;13.064;2022-08-30T03:31:32;10.00;;;9.10;;
19089;SDS011;9677;50.656;13.064;2022-08-30T03:34:18;10.30;;;9.30;;
19089;SDS011;9677;50.656;13.064;2022-08-30T03:36:48;10.00;;;9.10;;
19089;SDS011;9677;50.656;13.064;2022-08-30T03:39:16;10.00;;;9.10;;
19089;SDS011;9677;50.656;13.064;2022-08-30T03:41:45;10.87;;;9.73;;
19089;SDS011;9677;50.656;13.064;2022-08-30T03:44:15;10.13;;;9.13;;
19089;SDS011;9677;50.656;13.064;2022-08-30T03:46:43;10.13;;;9.13;;
19089;SDS011;9677;50.656;13.064;2022-08-30T03:49:12;10.00;;;9.10;;
19089;SDS011;9677;50.656;13.064;2022-08-30T03:51:40;10.57;;;9.57;;
19089;SDS011;9677;50.656;13.064;2022-08-30T03:54:09;10.60;;;9.50;;
19089;SDS011;9677;50.656;13.064;2022-08-30T03:56:38;10.30;;;9.30;;
19089;SDS011;9677;50.656;13.064;2022-08-30T03:59:07;10.73;;;9.63;;
19089;SDS011;9677;50.656;13.064;2022-08-30T04:01:37;10.00;;;9.10;;
19089;SDS011;9677;50.656;13.064;2022-08-30T04:04:07;10.20;;;9.20;;
19089;SDS011;9677;50.656;13.064;2022-08-30T04:06:35;10.17;;;9.13;;
19089;SDS011;9677;50.656;13.064;2022-08-30T04:09:04;10.60;;;9.50;;
19089;SDS011;9677;50.656;13.064;2022-08-30T04:11:33;10.53;;;9.43;;
19089;SDS011;9677;50.656;13.064;2022-08-30T04:14:02;10.00;;;9.03;;
19089;SDS011;9677;50.656;13.064;2022-08-30T04:16:30;10.17;;;9.17;;
19089;SDS011;9677;50.656;13.064;2022-08-30T04:19:00;11.50;;;9.40;;
19089;SDS011;9677;50.656;13.064;2022-08-30T04:21:28;10.20;;;9.30;;
19089;SDS011;9677;50.656;13.064;2022-08-30T04:24:00;10.80;;;9.70;;
19089;SDS011;9677;50.656;13.064;2022-08-30T04:26:29;10.30;;;9.20;;
19089;SDS011;9677;50.656;13.064;2022-08-30T04:28:57;10.70;;;9.67;;
19089;SDS011;9677;50.656;13.064;2022-08-30T04:31:25;10.10;;;9.10;;
19089;SDS011;9677;50.656;13.064;2022-08-30T04:33:54;10.67;;;9.57;;
19089;SDS011;9677;50.656;13.064;2022-08-30T04:36:23;10.50;;;9.50;;
19089;SDS011;9677;50.656;13.064;2022-08-30T04:38:52;10.47;;;9.47;;
19089;SDS011;9677;50.656;13.064;2022-08-30T04:41:20;10.50;;;9.50;;
19089;SDS011;9677;50.656;13.064;2022-08-30T04:43:49;11.20;;;9.10;;
19089;SDS011;9677;50.656;13.064;2022-08-30T04:46:18;10.70;;;9.70;;
19089;SDS011;9677;50.656;13.064;2022-08-30T04:48:47;10.53;;;9.53;;
19089;SDS011;9677;50.656;13.064;2022-08-30T04:51:16;10.70;;;9.60;;
19089;SDS011;9677;50.656;13.064;2022-08-30T04:53:46;10.60;;;9.50;;
19089;SDS011;9677;50.656;13.064;2022-08-30T04:56:15;10.30;;;9.30;;
19089;SDS011;9677;50.656;13.064;2022-08-30T04:58:48;10.47;;;9.47;;
19089;SDS011;9677;50.656;13.064;2022-08-30T05:01:21;10.40;;;9.40;;
19089;SDS011;9677;50.656;13.064;2022-08-30T05:03:52;10.97;;;9.83;;
19089;SDS011;9677;50.656;13.064;2022-08-30T05:06:22;11.30;;;10.07;;
19089;SDS011;9677;50.656;13.064;2022-08-30T05:08:54;10.23;;;9.23;;
19089;SDS011;9677;50.656;13.064;2022-08-30T05:11:22;10.80;;;9.80;;
19089;SDS011;9677;50.656;13.064;2022-08-30T05:13:51;11.40;;;9.30;;
19089;SDS011;9677;50.656;13.064;2022-08-30T05:16:19;10.73;;;9.63;;
19089;SDS011;9677;50.656;13.064;2022-08-30T05:18:48;10.73;;;9.73;;
19089;SDS011;9677;50.656;13.064;2022-08-30T05:21:18;10.20;;;9.20;;
19089;SDS011;9677;50.656;13.064;2022-08-30T05:23:49;10.10;;;9.17;;
19089;SDS011;9677;50.656;13.064;2022-08-30T05:26:23;10.30;;;9.30;;
19089;SDS011;9677;50.656;13.064;2022-08-30T05:28:54;10.20;;;9.20;;
19089;SDS011;9677;50.656;13.064;2022-08-30T05:31:23;10.33;;;9.33;;
19089;SDS011;9677;50.656;13.064;2022-08-30T05:33:55;10.30;;;9.20;;
19089;SDS011;9677;50.656;13.064;2022-08-30T05:36:26;10.50;;;9.40;;
19089;SDS011;9677;50.656;13.064;2022-08-30T05:38:59;10.87;;;9.77;;
19089;SDS011;9677;50.656;13.064;2022-08-30T05:41:31;10.40;;;9.40;;
19089;SDS011;9677;50.656;13.064;2022-08-30T05:44:03;10.90;;;9.77;;
19089;SDS011;9677;50.656;13.064;2022-08-30T05:46:34;10.50;;;9.50;;
19089;SDS011;9677;50.656;13.064;2022-08-30T05:49:05;10.70;;;9.60;;
19089;SDS011;9677;50.656;13.064;2022-08-30T05:51:35;10.43;;;9.33;;
19089;SDS011;9677;50.656;13.064;2022-08-30T05:54:11;10.50;;;9.40;;
19089;SDS011;9677;50.656;13.064;2022-08-30T05:56:41;10.57;;;9.47;;
19089;SDS011;9677;50.656;13.064;2022-08-30T05:59:12;10.00;;;9.00;;
19089;SDS011;9677;50.656;13.064;2022-08-30T06:01:43;10.37;;;9.27;;
19089;SDS011;9677;50.656;13.064;2022-08-30T06:04:13;10.30;;;9.30;;
19089;SDS011;9677;50.656;13.064;2022-08-30T06:06:42;10.30;;;9.30;;
19089;SDS011;9677;50.656;13.064;2022-08-30T06:09:13;10.17;;;9.17;;
19089;SDS011;9677;50.656;13.064;2022-08-30T06:11:42;10.30;;;9.30;;
19089;SDS011;9677;50.656;13.064;2022-08-30T06:14:11;10.93;;;9.20;;
19089;SDS011;9677;50.656;13.064;2022-08-30T06:16:41;9.97;;;9.07;;
19089;SDS011;9677;50.656;13.064;2022-08-30T06:19:12;10.00;;;9.10;;
19089;SDS011;9677;50.656;13.064;2022-08-30T06:21:41;10.50;;;9.50;;
19089;SDS011;9677;50.656;13.064;2022-08-30T06:24:12;10.10;;;9.10;;
19089;SDS011;9677;50.656;13.064;2022-08-30T06:26:42;9.80;;;8.90;;
19089;SDS011;9677;50.656;13.064;2022-08-30T06:29:16;10.20;;;9.30;;
19089;SDS011;9677;50.656;13.064;2022-08-30T06:31:46;10.13;;;9.13;;
19089;SDS011;9677;50.656;13.064;2022-08-30T06:34:15;11.10;;;9.30;;
19089;SDS011;9677;50.656;13.064;2022-08-30T06:36:44;10.00;;;9.00;;
19089;SDS011;9677;50.656;13.064;2022-08-30T06:39:14;10.03;;;9.10;;
19089;SDS011;9677;50.656;13.064;2022-08-30T06:41:42;10.07;;;9.07;;
19089;SDS011;9677;50.656;13.064;2022-08-30T06:44:22;10.57;;;9.57;;
19089;SDS011;9677;50.656;13.064;2022-08-30T06:46:51;10.60;;;9.40;;
19089;SDS011;9677;50.656;13.064;2022-08-30T06:49:19;10.50;;;9.50;;
19089;SDS011;9677;50.656;13.064;2022-08-30T06:51:47;10.23;;;9.10;;
19089;SDS011;9677;50.656;13.064;2022-08-30T06:54:18;10.40;;;9.27;;
19089;SDS011;9677;50.656;13.064;2022-08-30T06:56:46;10.37;;;9.37;;
19089;SDS011;9677;50.656;13.064;2022-08-30T06:59:24;10.70;;;9.70;;
19089;SDS011;9677;50.656;13.064;2022-08-30T07:01:53;10.30;;;9.30;;
19089;SDS011;9677;50.656;13.064;2022-08-30T07:04:22;10.20;;;9.27;;
19089;SDS011;9677;50.656;13.064;2022-08-30T07:06:51;10.03;;;9.13;;
19089;SDS011;9677;50.656;13.064;2022-08-30T07:09:21;10.57;;;9.57;;
19089;SDS011;9677;50.656;13.064;2022-08-30T07:11:49;10.00;;;9.00;;
19089;SDS011;9677;50.656;13.064;2022-08-30T07:14:19;10.67;;;9.23;;
19089;SDS011;9677;50.656;13.064;2022-08-30T07:16:48;9.63;;;8.73;;
19089;SDS011;9677;50.656;13.064;2022-08-30T07:19:17;10.20;;;9.20;;
19089;SDS011;9677;50.656;13.064;2022-08-30T07:21:46;9.80;;;8.90;;
19089;SDS011;9677;50.656;13.064;2022-08-30T07:24:16;9.97;;;8.97;;
19089;SDS011;9677;50.656;13.064;2022-08-30T07:26:48;10.00;;;9.00;;
19089;SDS011;9677;50.656;13.064;2022-08-30T07:29:17;10.00;;;9.00;;
19089;SDS011;9677;50.656;13.064;2022-08-30T07:31:47;11.47;;;9.13;;
19089;SDS011;9677;50.656;13.064;2022-08-30T07:34:15;9.67;;;8.77;;
19089;SDS011;9677;50.656;13.064;2022-08-30T07:36:47;9.83;;;8.93;;
19089;SDS011;9677;50.656;13.064;2022-08-30T07:39:16;10.33;;;9.23;;
19089;SDS011;9677;50.656;13.064;2022-08-30T07:41:45;9.93;;;9.03;;
19089;SDS011;9677;50.656;13.064;2022-08-30T07:44:16;9.87;;;8.93;;
19089;SDS011;9677;50.656;13.064;2022-08-30T07:46:48;9.87;;;8.97;;
19089;SDS011;9677;50.656;13.064;2022-08-30T07:49:17;10.63;;;9.53;;
19089;SDS011;9677;50.656;13.064;2022-08-30T07:51:46;9.73;;;8.73;;
19089;SDS011;9677;50.656;13.064;2022-08-30T07:54:14;10.30;;;9.20;;
19089;SDS011;9677;50.656;13.064;2022-08-30T07:56:42;9.97;;;9.07;;
19089;SDS011;9677;50.656;13.064;2022-08-30T07:59:12;9.93;;;8.93;;
19089;SDS011;9677;50.656;13.064;2022-08-30T08:01:40;9.80;;;8.90;;
19089;SDS011;9677;50.656;13.064;2022-08-30T08:04:09;9.80;;;8.90;;
19089;SDS011;9677;50.656;13.064;2022-08-30T08:06:38;9.87;;;8.93;;
19089;SDS011;9677;50.656;13.064;2022-08-30T08:09:07;9.93;;;8.93;;
19089;SDS011;9677;50.656;13.064;2022-08-30T08:11:35;9.70;;;8.80;;
19089;SDS011;9677;50.656;13.064;2022-08-30T08:14:05;10.97;;;9.10;;
19089;SDS011;9677;50.656;13.064;2022-08-30T08:16:35;9.40;;;8.60;;
19089;SDS011;9677;50.656;13.064;2022-08-30T08:19:04;12.73;;;9.23;;
19089;SDS011;9677;50.656;13.064;2022-08-30T08:21:35;9.80;;;8.90;;
19089;SDS011;9677;50.656;13.064;2022-08-30T08:24:04;9.70;;;8.80;;
19089;SDS011;9677;50.656;13.064;2022-08-30T08:26:33;9.63;;;8.73;;
19089;SDS011;9677;50.656;13.064;2022-08-30T08:29:03;9.80;;;8.87;;
19089;SDS011;9677;50.656;13.064;2022-08-30T08:31:33;9.80;;;8.90;;
19089;SDS011;9677;50.656;13.064;2022-08-30T08:34:04;9.60;;;8.70;;
19089;SDS011;9677;50.656;13.064;2022-08-30T08:36:32;10.23;;;9.23;;
19089;SDS011;9677;50.656;13.064;2022-08-30T08:39:02;9.70;;;8.70;;
19089;SDS011;9677;50.656;13.064;2022-08-30T08:41:39;9.60;;;8.70;;
19089;SDS011;9677;50.656;13.064;2022-08-30T08:44:20;9.30;;;8.40;;
19089;SDS011;9677;50.656;13.064;2022-08-30T08:47:05;9.63;;;8.73;;
19089;SDS011;9677;50.656;13.064;2022-08-30T08:49:43;9.57;;;8.67;;
19089;SDS011;9677;50.656;13.064;2022-08-30T08:52:17;9.50;;;8.60;;
19089;SDS011;9677;50.656;13.064;2022-08-30T08:55:09;9.57;;;8.67;;
19089;SDS011;9677;50.656;13.064;2022-08-30T08:57:41;9.53;;;8.67;;
19089;SDS011;9677;50.656;13.064;2022-08-30T09:00:30;9.00;;;8.20;;
19089;SDS011;9677;50.656;13.064;2022-08-30T09:03:01;9.33;;;8.43;;
19089;SDS011;9677;50.656;13.064;2022-08-30T09:05:33;8.80;;;8.00;;
19089;SDS011;9677;50.656;13.064;2022-08-30T09:08:07;9.20;;;8.40;;
19089;SDS011;9677;50.656;13.064;2022-08-30T09:10:40;9.10;;;8.30;;
19089;SDS011;9677;50.656;13.064;2022-08-30T09:13:17;9.00;;;8.20;;
19089;SDS011;9677;50.656;13.064;2022-08-30T09:15:48;9.10;;;8.30;;
19089;SDS011;9677;50.656;13.064;2022-08-30T09:18:38;9.37;;;8.47;;
19089;SDS011;9677;50.656;13.064;2022-08-30T09:21:11;9.00;;;8.20;;
19089;SDS011;9677;50.656;13.064;2022-08-30T09:23:48;9.30;;;8.40;;
19089;SDS011;9677;50.656;13.064;2022-08-30T09:26:26;9.03;;;8.23;;
19089;SDS011;9677;50.656;13.064;2022-08-30T09:28:57;9.27;;;8.37;;
19089;SDS011;9677;50.656;13.064;2022-08-30T09:31:27;8.97;;;8.17;;
19089;SDS011;9677;50.656;13.064;2022-08-30T09:34:00;9.20;;;8.40;;
19089;SDS011;9677;50.656;13.064;2022-08-30T09:36:33;9.10;;;8.30;;
19089;SDS011;9677;50.656;13.064;2022-08-30T09:39:14;8.90;;;8.10;;
19089;SDS011;9677;50.656;13.064;2022-08-30T09:41:47;9.10;;;8.20;;
19089;SDS011;9677;50.656;13.064;2022-08-30T09:44:17;8.87;;;8.07;;
19089;SDS011;9677;50.656;13.064;2022-08-30T09:46:49;9.40;;;8.50;;
19089;SDS011;9677;50.656;13.064;2022-08-30T09:49:33;9.13;;;8.30;;
19089;SDS011;9677;50.656;13.064;2022-08-30T09:52:08;8.90;;;8.10;;
19089;SDS011;9677;50.656;13.064;2022-08-30T09:55:02;8.80;;;8.00;;
19089;SDS011;9677;50.656;13.064;2022-08-30T09:57:47;8.90;;;8.10;;
19089;SDS011;9677;50.656;13.064;2022-08-30T10:00:27;9.20;;;8.40;;
19089;SDS011;9677;50.656;13.064;2022-08-30T10:03:02;9.20;;;8.30;;
19089;SDS011;9677;50.656;13.064;2022-08-30T10:06:09;9.47;;;8.57;;
19089;SDS011;9677;50.656;13.064;2022-08-30T10:08:50;8.90;;;8.10;;
19089;SDS011;9677;50.656;13.064;2022-08-30T10:11:31;8.90;;;8.10;;
19089;SDS011;9677;50.656;13.064;2022-08-30T10:14:13;9.20;;;8.30;;
19089;SDS011;9677;50.656;13.064;2022-08-30T10:17:08;9.50;;;8.60;;
19089;SDS011;9677;50.656;13.064;2022-08-30T10:19:56;9.50;;;8.50;;
19089;SDS011;9677;50.656;13.064;2022-08-30T10:22:39;8.83;;;8.03;;
19089;SDS011;9677;50.656;13.064;2022-08-30T10:25:12;9.33;;;8.43;;
19089;SDS011;9677;50.656;13.064;2022-08-30T10:27:46;9.67;;;8.77;;
19089;SDS011;9677;50.656;13.064;2022-08-30T10:30:21;9.40;;;8.50;;
19089;SDS011;9677;50.656;13.064;2022-08-30T10:32:50;9.50;;;8.60;;
19089;SDS011;9677;50.656;13.064;2022-08-30T10:35:27;9.43;;;8.53;;
19089;SDS011;9677;50.656;13.064;2022-08-30T10:38:07;9.47;;;8.47;;
19089;SDS011;9677;50.656;13.064;2022-08-30T10:40:43;9.20;;;8.30;;
19089;SDS011;9677;50.656;13.064;2022-08-30T10:43:40;9.60;;;8.70;;
19089;SDS011;9677;50.656;13.064;2022-08-30T10:46:20;9.43;;;8.53;;
19089;SDS011;9677;50.656;13.064;2022-08-30T10:48:57;8.97;;;8.17;;
19089;SDS011;9677;50.656;13.064;2022-08-30T10:51:29;9.10;;;8.30;;
19089;SDS011;9677;50.656;13.064;2022-08-30T10:54:08;9.70;;;8.30;;
19089;SDS011;9677;50.656;13.064;2022-08-30T10:56:44;9.07;;;8.27;;
19089;SDS011;9677;50.656;13.064;2022-08-30T10:59:18;9.23;;;8.43;;
19089;SDS011;9677;50.656;13.064;2022-08-30T11:01:55;9.00;;;8.20;;
19089;SDS011;9677;50.656;13.064;2022-08-30T11:07:52;9.00;;;8.20;;
19089;SDS011;9677;50.656;13.064;2022-08-30T11:10:49;9.13;;;8.30;;
19089;SDS011;9677;50.656;13.064;2022-08-30T11:13:29;9.30;;;8.40;;
19089;SDS011;9677;50.656;13.064;2022-08-30T11:16:00;9.10;;;8.30;;
19089;SDS011;9677;50.656;13.064;2022-08-30T11:18:32;9.37;;;8.23;;
19089;SDS011;9677;50.656;13.064;2022-08-30T11:21:20;9.30;;;8.40;;
19089;SDS011;9677;50.656;13.064;2022-08-30T11:23:58;9.17;;;8.27;;
19089;SDS011;9677;50.656;13.064;2022-08-30T11:26:51;9.20;;;8.37;;
19089;SDS011;9677;50.656;13.064;2022-08-30T11:29:30;9.30;;;8.40;;
19089;SDS011;9677;50.656;13.064;2022-08-30T11:35:38;8.90;;;8.10;;
19089;SDS011;9677;50.656;13.064;2022-08-30T11:38:17;9.20;;;8.40;;
19089;SDS011;9677;50.656;13.064;2022-08-30T11:41:29;9.23;;;8.40;;
19089;SDS011;9677;50.656;13.064;2022-08-30T11:44:13;9.53;;;8.63;;
19089;SDS011;9677;50.656;13.064;2022-08-30T11:46:55;9.00;;;8.20;;
19089;SDS011;9677;50.656;13.064;2022-08-30T11:49:35;9.50;;;8.60;;
19089;SDS011;9677;50.656;13.064;2022-08-30T11:52:26;10.40;;;8.57;;
19089;SDS011;9677;50.656;13.064;2022-08-30T11:58:18;9.00;;;8.20;;
19089;SDS011;9677;50.656;13.064;2022-08-30T12:01:13;9.23;;;8.33;;
19089;SDS011;9677;50.656;13.064;2022-08-30T12:04:24;9.30;;;8.50;;
19089;SDS011;9677;50.656;13.064;2022-08-30T12:07:03;9.07;;;8.27;;
19089;SDS011;9677;50.656;13.064;2022-08-30T12:18:29;9.23;;;8.33;;
19089;SDS011;9677;50.656;13.064;2022-08-30T12:21:23;10.17;;;8.33;;
19089;SDS011;9677;50.656;13.064;2022-08-30T12:24:00;10.30;;;8.60;;
19089;SDS011;9677;50.656;13.064;2022-08-30T12:26:34;9.50;;;8.60;;
19089;SDS011;9677;50.656;13.064;2022-08-30T12:29:11;9.40;;;8.50;;
19089;SDS011;9677;50.656;13.064;2022-08-30T12:31:45;9.27;;;8.37;;
19089;SDS011;9677;50.656;13.064;2022-08-30T12:34:20;9.20;;;8.30;;
19089;SDS011;9677;50.656;13.064;2022-08-30T12:36:54;9.40;;;8.50;;
19089;SDS011;9677;50.656;13.064;2022-08-30T12:39:30;9.50;;;8.50;;
19089;SDS011;9677;50.656;13.064;2022-08-30T12:42:12;8.97;;;8.17;;
19089;SDS011;9677;50.656;13.064;2022-08-30T12:44:46;9.10;;;8.30;;
19089;SDS011;9677;50.656;13.064;2022-08-30T12:47:17;9.70;;;8.50;;
19089;SDS011;9677;50.656;13.064;2022-08-30T12:49:52;9.83;;;8.90;;
19089;SDS011;9677;50.656;13.064;2022-08-30T12:52:27;8.83;;;8.03;;
19089;SDS011;9677;50.656;13.064;2022-08-30T12:55:04;9.27;;;8.40;;
19089;SDS011;9677;50.656;13.064;2022-08-30T12:57:54;8.97;;;8.17;;
19089;SDS011;9677;50.656;13.064;2022-08-30T13:00:27;9.97;;;8.67;;
19089;SDS011;9677;50.656;13.064;2022-08-30T13:03:00;9.20;;;8.30;;
19089;SDS011;9677;50.656;13.064;2022-08-30T13:05:52;9.20;;;8.30;;
19089;SDS011;9677;50.656;13.064;2022-08-30T13:08:23;9.20;;;8.30;;
19089;SDS011;9677;50.656;13.064;2022-08-30T13:11:03;8.80;;;8.00;;
19089;SDS011;9677;50.656;13.064;2022-08-30T13:13:37;9.10;;;8.30;;
19089;SDS011;9677;50.656;13.064;2022-08-30T13:16:11;8.80;;;8.00;;
19089;SDS011;9677;50.656;13.064;2022-08-30T13:18:52;9.20;;;8.30;;
19089;SDS011;9677;50.656;13.064;2022-08-30T13:21:25;8.90;;;8.10;;
19089;SDS011;9677;50.656;13.064;2022-08-30T13:23:56;9.10;;;8.30;;
19089;SDS011;9677;50.656;13.064;2022-08-30T13:26:28;9.20;;;8.30;;
19089;SDS011;9677;50.656;13.064;2022-08-30T13:29:00;8.87;;;8.07;;
19089;SDS011;9677;50.656;13.064;2022-08-30T13:31:36;9.40;;;8.50;;
19089;SDS011;9677;50.656;13.064;2022-08-30T13:34:04;8.93;;;8.13;;
19089;SDS011;9677;50.656;13.064;2022-08-30T13:36:35;8.80;;;8.00;;
19089;SDS011;9677;50.656;13.064;2022-08-30T13:39:14;9.07;;;8.27;;
19089;SDS011;9677;50.656;13.064;2022-08-30T13:41:47;9.13;;;8.30;;
19089;SDS011;9677;50.656;13.064;2022-08-30T13:44:17;9.10;;;8.30;;
19089;SDS011;9677;50.656;13.064;2022-08-30T13:46:46;9.00;;;8.20;;
19089;SDS011;9677;50.656;13.064;2022-08-30T13:49:22;8.80;;;8.00;;
19089;SDS011;9677;50.656;13.064;2022-08-30T13:52:11;8.90;;;8.00;;
19089;SDS011;9677;50.656;13.064;2022-08-30T13:54:47;9.13;;;8.27;;
19089;SDS011;9677;50.656;13.064;2022-08-30T13:57:17;9.17;;;8.27;;
19089;SDS011;9677;50.656;13.064;2022-08-30T14:00:10;9.00;;;8.20;;
19089;SDS011;9677;50.656;13.064;2022-08-30T14:02:43;9.17;;;8.37;;
19089;SDS011;9677;50.656;13.064;2022-08-30T14:05:20;9.10;;;8.30;;
19089;SDS011;9677;50.656;13.064;2022-08-30T14:08:12;9.20;;;8.30;;
19089;SDS011;9677;50.656;13.064;2022-08-30T14:11:02;8.90;;;8.07;;
19089;SDS011;9677;50.656;13.064;2022-08-30T14:13:31;9.07;;;8.27;;
19089;SDS011;9677;50.656;13.064;2022-08-30T14:16:01;9.47;;;8.60;;
19089;SDS011;9677;50.656;13.064;2022-08-30T14:18:54;10.20;;;8.50;;
19089;SDS011;9677;50.656;13.064;2022-08-30T14:21:22;8.80;;;8.00;;
19089;SDS011;9677;50.656;13.064;2022-08-30T14:23:52;8.83;;;8.03;;
19089;SDS011;9677;50.656;13.064;2022-08-30T14:26:23;9.20;;;8.40;;
19089;SDS011;9677;50.656;13.064;2022-08-30T14:28:58;9.27;;;8.37;;
19089;SDS011;9677;50.656;13.064;2022-08-30T14:31:28;9.33;;;8.37;;
19089;SDS011;9677;50.656;13.064;2022-08-30T14:33:59;9.10;;;8.30;;
19089;SDS011;9677;50.656;13.064;2022-08-30T14:36:29;9.10;;;8.30;;
19089;SDS011;9677;50.656;13.064;2022-08-30T14:39:00;9.30;;;8.40;;
19089;SDS011;9677;50.656;13.064;2022-08-30T14:41:34;9.30;;;8.40;;
19089;SDS011;9677;50.656;13.064;2022-08-30T14:44:09;9.40;;;8.23;;
19089;SDS011;9677;50.656;13.064;2022-08-30T14:46:39;9.20;;;8.40;;
19089;SDS011;9677;50.656;13.064;2022-08-30T14:49:08;9.10;;;8.30;;
19089;SDS011;9677;50.656;13.064;2022-08-30T14:51:37;9.80;;;8.80;;
19089;SDS011;9677;50.656;13.064;2022-08-30T14:54:08;9.23;;;8.33;;
19089;SDS011;9677;50.656;13.064;2022-08-30T14:56:37;9.10;;;8.20;;
19089;SDS011;9677;50.656;13.064;2022-08-30T14:59:07;8.83;;;8.03;;
19089;SDS011;9677;50.656;13.064;2022-08-30T15:01:38;9.00;;;8.20;;
19089;SDS011;9677;50.656;13.064;2022-08-30T15:04:08;9.30;;;8.40;;
19089;SDS011;9677;50.656;13.064;2022-08-30T15:06:39;9.37;;;8.47;;
19089;SDS011;9677;50.656;13.064;2022-08-30T15:09:13;9.00;;;8.20;;
19089;SDS011;9677;50.656;13.064;2022-08-30T15:11:49;9.10;;;8.30;;
19089;SDS011;9677;50.656;13.064;2022-08-30T15:14:20;8.90;;;8.10;;
19089;SDS011;9677;50.656;13.064;2022-08-30T15:16:48;8.73;;;7.93;;
19089;SDS011;9677;50.656;13.064;2022-08-30T15:19:20;9.10;;;8.30;;
19089;SDS011;9677;50.656;13.064;2022-08-30T15:21:49;8.90;;;8.10;;
19089;SDS011;9677;50.656;13.064;2022-08-30T15:24:21;9.20;;;8.40;;
19089;SDS011;9677;50.656;13.064;2022-08-30T15:26:55;8.87;;;8.07;;
19089;SDS011;9677;50.656;13.064;2022-08-30T15:29:25;9.00;;;8.20;;
19089;SDS011;9677;50.656;13.064;2022-08-30T15:31:57;9.57;;;8.67;;
19089;SDS011;9677;50.656;13.064;2022-08-30T15:34:30;9.33;;;8.43;;